Airfield :







YOU CAN JOIN US ON...

 
LOGIN :

Register | Disclaimer

   EN    FR    IT 

 









Legend :    VFR   Marginal VFR   IFR   Intensive IFR   Very Intensive IFR
Visi :
Ceiling :
>= 8 km
>= 3000ft
5 to 8 km
1000 to 3000 ft
1500m to 5 km
500 to 1000 ft
800 to 1500m
200 to 500 ft
< 800m
< 200 ft
Symbols :   Thunderstorms  Fog  Heavy snow  Heavy precipitations  Wind > 20 kt






- Airport Elevation : 20 ft
- IATA code : BOS


KBOS - General Edward Lawrence Logan International

CURRENT METAR :
  • 080554Z 22013KT 10SM FEW011 BKN085 02/00 A3003 RMK AO2 SLP170 60004 T00170000 10017 21006 58036

EXPIRED METARs :
  • 080454Z 20010KT 10SM FEW011 OVC055 01/M01 A3007 RMK AO2 SNB05E23 SLP180 P0000 T00111006 400111044
  • 080423Z 21009KT 10SM FEW020 OVC060 01/M01 A3010 RMK AO2 SNB05E23 P0000 T00061011
  • 080411Z 20008KT 9SM -SN FEW014 FEW021 OVC060 01/M02 A3011 RMK AO2 SNB05 P0000 T00061017
  • 080354Z 21009KT 10SM FEW021 BKN060 OVC075 01/M02 A3012 RMK AO2 FZRAE25SNE25PLE25 SLP197 P0002 T00061017

TAF KBOS
Valid from the 08 at 06:00 until the 09 at 12:00 UTC


080520Z 0806/0912 21010KT P6SM BKN050
FM081400 29012G20KT P6SM SCT250
FM090000 28006KT P6SM FEW250
KZBW FIR / North America



MET'MAP, your aeronautical weather chart ! - Copyright ORBIFLY December 2007 - Disclaimer

ORBIFLY MET'MAP TEAM :

Programming & Development : Alexandra Zaïnal
Original concept : Baudouin d'Aumeries
Technical & hardware support : Manuel Goepfert
Assistance : Marc-Olivier Méhu




SOURCES & CREDITS :

   NOAA